Whiteman Air Force Base
KSZL : now visible

Airfield :











YOU CAN JOIN US ON...

 
LOGIN :

Register | Disclaimer

   EN    FR    IT 

 









Legend :    VFR   Marginal VFR   IFR   Intensive IFR   Very Intensive IFR
Visi :
Ceiling :
>= 8 km
>= 3000ft
5 to 8 km
1000 to 3000 ft
1500m to 5 km
500 to 1000 ft
800 to 1500m
200 to 500 ft
< 800m
< 200 ft
Symbols :   Thunderstorms  Fog  Heavy snow  Heavy precipitations  Wind > 20 kt






- Airport Elevation : 870 ft


KSZL - Whiteman Air Force Base

CURRENT METAR :
  • 232056Z 17015KT 10SM BKN040 28/19 A2988 RMK AO2A SLP114 T02770189 57011 $

EXPIRED METARs :
  • 231956Z 17017G23KT 10SM SCT043 SCT200 29/19 A2989 RMK AO2A SLP117 T02930190 $
  • 231856Z 17016KT 10SM SCT040 SCT170 28/18 A2991 RMK AO2A SLP124 T02830181 $

TAF TAF KSZL
Valid from the 23 at 19:00 until the 25 at 01:00 UTC


231900Z 2319/2501 18015G25KT 9999 FEW100 QNH2984INS
BECMG 2323/2324 17009KT 9999 BKN050 510006 QNH2987INS
BECMG 2415/2416 18015G25KT 8000 SHRA BKN030 QNH2983INS
BECMG 2417/2418 19012G18KT 9999 NSW SCT035 BKN140 621504 QNH2980INS
BECMG 2423/2424 19015G25KT 8000 SHRA OVC030 621504 QNH2980INS
TEMPO 2500/2501 VRB20G35KT 4800 TSRAGR OVC020 TX31/2321Z TN22/2412Z
KZKC FIR / North America



MET'MAP, your aeronautical weather chart ! - Copyright ORBIFLY December 2007 - Disclaimer

ORBIFLY MET'MAP TEAM :

Programming & Development : Alexandra Zaïnal
Concept & original design : Baudouin d'Aumeries
Assistance for programming : Marc-Olivier Méhu
Technical & hardware support : Manuel Goepfert

Contact : metmap@orbifly.com




SOURCES & CREDITS :

   NOAA       Earth
Advisory